sensor_id;sensor_type;location;lat;lon;timestamp;pressure;altitude;pressure_sealevel;temperature;humidity
64141;BME280;50436;50.618;7.932;2024-02-16T00:00:10;96231.31;;;9.02;100.00
64141;BME280;50436;50.618;7.932;2024-02-16T00:02:59;96226.81;;;9.03;100.00
64141;BME280;50436;50.618;7.932;2024-02-16T00:05:46;96221.25;;;9.04;100.00
64141;BME280;50436;50.618;7.932;2024-02-16T00:08:31;96243.16;;;9.06;100.00
64141;BME280;50436;50.618;7.932;2024-02-16T00:11:20;96223.41;;;9.07;100.00
64141;BME280;50436;50.618;7.932;2024-02-16T00:14:08;96221.00;;;9.06;100.00
64141;BME280;50436;50.618;7.932;2024-02-16T00:16:54;96218.88;;;9.08;100.00
64141;BME280;50436;50.618;7.932;2024-02-16T00:19:40;96220.66;;;9.02;100.00
64141;BME280;50436;50.618;7.932;2024-02-16T00:22:26;96220.44;;;9.04;100.00
64141;BME280;50436;50.618;7.932;2024-02-16T00:25:11;96213.22;;;9.04;100.00
64141;BME280;50436;50.618;7.932;2024-02-16T00:27:59;96210.56;;;9.04;100.00
64141;BME280;50436;50.618;7.932;2024-02-16T00:30:48;96208.94;;;9.03;100.00
64141;BME280;50436;50.618;7.932;2024-02-16T00:33:34;96204.59;;;8.97;100.00
64141;BME280;50436;50.618;7.932;2024-02-16T00:36:20;96204.50;;;8.92;100.00
64141;BME280;50436;50.618;7.932;2024-02-16T00:39:06;96197.00;;;8.89;100.00
64141;BME280;50436;50.618;7.932;2024-02-16T00:41:52;96189.22;;;8.87;100.00
64141;BME280;50436;50.618;7.932;2024-02-16T00:44:38;96194.88;;;8.91;100.00
64141;BME280;50436;50.618;7.932;2024-02-16T00:47:24;96192.69;;;8.88;100.00
64141;BME280;50436;50.618;7.932;2024-02-16T00:50:11;96204.66;;;8.85;100.00
64141;BME280;50436;50.618;7.932;2024-02-16T00:52:57;96199.47;;;8.79;100.00
64141;BME280;50436;50.618;7.932;2024-02-16T00:55:44;96203.44;;;8.76;100.00
64141;BME280;50436;50.618;7.932;2024-02-16T00:58:31;96210.91;;;8.74;100.00
64141;BME280;50436;50.618;7.932;2024-02-16T01:01:16;96211.13;;;8.73;100.00
64141;BME280;50436;50.618;7.932;2024-02-16T01:04:02;96211.13;;;8.73;100.00
64141;BME280;50436;50.618;7.932;2024-02-16T01:06:48;96204.19;;;8.72;100.00
64141;BME280;50436;50.618;7.932;2024-02-16T01:09:34;96200.69;;;8.71;100.00
64141;BME280;50436;50.618;7.932;2024-02-16T01:12:20;96194.78;;;8.69;100.00
64141;BME280;50436;50.618;7.932;2024-02-16T01:15:06;96212.19;;;8.72;100.00
64141;BME280;50436;50.618;7.932;2024-02-16T01:17:52;96197.72;;;8.68;100.00
64141;BME280;50436;50.618;7.932;2024-02-16T01:20:38;96206.28;;;8.70;100.00
64141;BME280;50436;50.618;7.932;2024-02-16T01:23:24;96202.34;;;8.72;100.00
64141;BME280;50436;50.618;7.932;2024-02-16T01:26:10;96207.41;;;8.74;100.00
64141;BME280;50436;50.618;7.932;2024-02-16T01:28:56;96196.09;;;8.67;100.00
64141;BME280;50436;50.618;7.932;2024-02-16T01:31:43;96202.56;;;8.71;100.00
64141;BME280;50436;50.618;7.932;2024-02-16T01:34:29;96202.00;;;8.69;100.00
64141;BME280;50436;50.618;7.932;2024-02-16T01:37:18;96198.53;;;8.68;100.00
64141;BME280;50436;50.618;7.932;2024-02-16T01:40:04;96194.78;;;8.69;100.00
64141;BME280;50436;50.618;7.932;2024-02-16T01:42:50;96198.34;;;8.75;100.00
64141;BME280;50436;50.618;7.932;2024-02-16T01:45:36;96202.41;;;8.77;100.00
64141;BME280;50436;50.618;7.932;2024-02-16T01:48:22;96206.75;;;8.83;100.00
64141;BME280;50436;50.618;7.932;2024-02-16T01:51:09;96209.19;;;8.85;100.00
64141;BME280;50436;50.618;7.932;2024-02-16T01:53:55;96214.22;;;8.81;100.00
64141;BME280;50436;50.618;7.932;2024-02-16T01:56:41;96199.97;;;8.76;100.00
64141;BME280;50436;50.618;7.932;2024-02-16T01:59:28;96200.78;;;8.76;100.00
64141;BME280;50436;50.618;7.932;2024-02-16T02:02:14;96186.06;;;8.74;100.00
64141;BME280;50436;50.618;7.932;2024-02-16T02:05:00;96193.19;;;8.68;100.00
64141;BME280;50436;50.618;7.932;2024-02-16T02:07:46;96200.63;;;8.66;100.00
64141;BME280;50436;50.618;7.932;2024-02-16T02:10:32;96193.34;;;8.61;100.00
64141;BME280;50436;50.618;7.932;2024-02-16T02:13:17;96188.81;;;8.62;100.00
64141;BME280;50436;50.618;7.932;2024-02-16T02:16:06;96191.72;;;8.60;100.00
64141;BME280;50436;50.618;7.932;2024-02-16T02:18:52;96191.72;;;8.60;100.00
64141;BME280;50436;50.618;7.932;2024-02-16T02:21:38;96184.28;;;8.62;100.00
64141;BME280;50436;50.618;7.932;2024-02-16T02:24:24;96180.50;;;8.58;100.00
64141;BME280;50436;50.618;7.932;2024-02-16T02:27:10;96186.94;;;8.62;100.00
64141;BME280;50436;50.618;7.932;2024-02-16T02:29:56;96182.59;;;8.56;100.00
64141;BME280;50436;50.618;7.932;2024-02-16T02:32:42;96182.50;;;8.51;100.00
64141;BME280;50436;50.618;7.932;2024-02-16T02:35:28;96160.78;;;8.43;100.00
64141;BME280;50436;50.618;7.932;2024-02-16T02:38:14;96169.34;;;8.45;100.00
64141;BME280;50436;50.618;7.932;2024-02-16T02:41:00;96179.44;;;8.43;100.00
64141;BME280;50436;50.618;7.932;2024-02-16T02:43:46;96182.91;;;8.43;100.00
64141;BME280;50436;50.618;7.932;2024-02-16T02:46:32;96187.75;;;8.46;100.00
64141;BME280;50436;50.618;7.932;2024-02-16T02:49:18;96173.97;;;8.49;100.00
64141;BME280;50436;50.618;7.932;2024-02-16T02:52:05;96168.38;;;8.51;100.00
64141;BME280;50436;50.618;7.932;2024-02-16T02:54:54;96172.50;;;8.58;100.00
64141;BME280;50436;50.618;7.932;2024-02-16T02:57:40;96162.94;;;8.62;100.00
64141;BME280;50436;50.618;7.932;2024-02-16T03:00:25;96170.47;;;8.65;100.00
64141;BME280;50436;50.618;7.932;2024-02-16T03:03:11;96168.38;;;8.68;100.00
64141;BME280;50436;50.618;7.932;2024-02-16T03:06:07;96172.34;;;8.65;100.00
64141;BME280;50436;50.618;7.932;2024-02-16T03:08:52;96175.22;;;8.63;100.00
64141;BME280;50436;50.618;7.932;2024-02-16T03:11:39;96164.56;;;8.63;100.00
64141;BME280;50436;50.618;7.932;2024-02-16T03:14:25;96156.81;;;8.62;100.00
64141;BME280;50436;50.618;7.932;2024-02-16T03:17:11;96160.22;;;8.57;100.00
64141;BME280;50436;50.618;7.932;2024-02-16T03:19:57;96156.56;;;8.47;100.00
64141;BME280;50436;50.618;7.932;2024-02-16T03:22:43;96172.41;;;8.53;100.00
64141;BME280;50436;50.618;7.932;2024-02-16T03:25:29;96166.25;;;8.53;100.00
64141;BME280;50436;50.618;7.932;2024-02-16T03:28:15;96176.69;;;8.54;100.00
64141;BME280;50436;50.618;7.932;2024-02-16T03:31:01;96181.41;;;8.64;100.00
64141;BME280;50436;50.618;7.932;2024-02-16T03:33:50;96202.41;;;8.60;100.00
64141;BME280;50436;50.618;7.932;2024-02-16T03:36:37;96209.91;;;8.63;100.00
64141;BME280;50436;50.618;7.932;2024-02-16T03:39:22;96210.50;;;8.65;100.00
64141;BME280;50436;50.618;7.932;2024-02-16T03:42:08;96210.81;;;8.69;100.00
64141;BME280;50436;50.618;7.932;2024-02-16T03:44:55;96208.38;;;8.68;100.00
64141;BME280;50436;50.618;7.932;2024-02-16T03:47:42;96203.03;;;8.51;100.00
64141;BME280;50436;50.618;7.932;2024-02-16T03:50:28;96197.84;;;8.44;100.00
64141;BME280;50436;50.618;7.932;2024-02-16T03:53:14;96175.72;;;8.44;100.00
64141;BME280;50436;50.618;7.932;2024-02-16T03:55:59;96176.44;;;8.56;100.00
64141;BME280;50436;50.618;7.932;2024-02-16T03:58:45;96181.41;;;8.64;100.00
64141;BME280;50436;50.618;7.932;2024-02-16T04:01:31;96197.16;;;8.65;100.00
64141;BME280;50436;50.618;7.932;2024-02-16T04:04:17;96190.13;;;8.59;100.00
64141;BME280;50436;50.618;7.932;2024-02-16T04:07:03;96189.56;;;8.57;100.00
64141;BME280;50436;50.618;7.932;2024-02-16T04:09:49;96178.53;;;8.54;100.00
64141;BME280;50436;50.618;7.932;2024-02-16T04:12:35;96180.41;;;8.53;100.00
64141;BME280;50436;50.618;7.932;2024-02-16T04:15:21;96179.84;;;8.51;100.00
64141;BME280;50436;50.618;7.932;2024-02-16T04:18:07;96184.13;;;8.52;100.00
64141;BME280;50436;50.618;7.932;2024-02-16T04:20:53;96183.31;;;8.52;100.00
64141;BME280;50436;50.618;7.932;2024-02-16T04:23:39;96188.91;;;8.50;100.00
64141;BME280;50436;50.618;7.932;2024-02-16T04:26:26;96184.28;;;8.46;100.00
64141;BME280;50436;50.618;7.932;2024-02-16T04:29:11;96202.13;;;8.45;100.00
64141;BME280;50436;50.618;7.932;2024-02-16T04:31:57;96197.84;;;8.44;100.00
64141;BME280;50436;50.618;7.932;2024-02-16T04:34:43;96197.72;;;8.51;100.00
64141;BME280;50436;50.618;7.932;2024-02-16T04:37:31;96198.13;;;8.59;100.00
64141;BME280;50436;50.618;7.932;2024-02-16T04:40:17;96195.44;;;8.59;100.00
64141;BME280;50436;50.618;7.932;2024-02-16T04:43:03;96184.53;;;8.61;100.00
64141;BME280;50436;50.618;7.932;2024-02-16T04:45:49;96180.56;;;8.63;100.00
64141;BME280;50436;50.618;7.932;2024-02-16T04:48:35;96172.81;;;8.62;100.00
64141;BME280;50436;50.618;7.932;2024-02-16T04:51:21;96160.69;;;8.54;100.00
64141;BME280;50436;50.618;7.932;2024-02-16T04:54:07;96146.16;;;8.45;100.00
64141;BME280;50436;50.618;7.932;2024-02-16T04:56:53;96125.78;;;8.39;100.00
64141;BME280;50436;50.618;7.932;2024-02-16T04:59:39;96113.88;;;8.30;100.00
64141;BME280;50436;50.618;7.932;2024-02-16T05:02:24;96118.00;;;8.21;100.00
64141;BME280;50436;50.618;7.932;2024-02-16T05:05:13;96130.66;;;8.14;100.00
64141;BME280;50436;50.618;7.932;2024-02-16T05:07:59;96140.94;;;8.22;100.00
64141;BME280;50436;50.618;7.932;2024-02-16T05:10:45;96157.25;;;8.25;100.00
64141;BME280;50436;50.618;7.932;2024-02-16T05:13:31;96157.56;;;8.29;100.00
64141;BME280;50436;50.618;7.932;2024-02-16T05:16:16;96164.41;;;8.36;100.00
64141;BME280;50436;50.618;7.932;2024-02-16T05:19:02;96174.25;;;8.36;100.00
64141;BME280;50436;50.618;7.932;2024-02-16T05:21:48;96172.00;;;8.16;100.00
64141;BME280;50436;50.618;7.932;2024-02-16T05:24:35;96156.56;;;8.01;100.00
64141;BME280;50436;50.618;7.932;2024-02-16T05:27:21;96168.50;;;7.99;100.00
64141;BME280;50436;50.618;7.932;2024-02-16T05:30:09;96178.34;;;7.98;100.00
64141;BME280;50436;50.618;7.932;2024-02-16T05:32:55;96174.06;;;7.97;100.00
64141;BME280;50436;50.618;7.932;2024-02-16T05:35:44;96171.56;;;7.91;100.00
64141;BME280;50436;50.618;7.932;2024-02-16T05:38:35;96184.78;;;7.86;100.00
64141;BME280;50436;50.618;7.932;2024-02-16T05:41:26;96187.00;;;7.77;100.00
64141;BME280;50436;50.618;7.932;2024-02-16T05:44:12;96182.66;;;7.71;100.00
64141;BME280;50436;50.618;7.932;2024-02-16T05:46:58;96178.50;;;7.63;100.00
64141;BME280;50436;50.618;7.932;2024-02-16T05:49:45;96168.88;;;7.62;100.00
64141;BME280;50436;50.618;7.932;2024-02-16T05:52:31;96156.38;;;7.63;100.00
64141;BME280;50436;50.618;7.932;2024-02-16T05:55:18;96163.91;;;7.66;100.00
64141;BME280;50436;50.618;7.932;2024-02-16T05:58:06;96154.28;;;7.65;100.00
64141;BME280;50436;50.618;7.932;2024-02-16T06:00:53;96175.84;;;7.63;100.00
64141;BME280;50436;50.618;7.932;2024-02-16T06:03:41;96179.53;;;7.62;100.00
64141;BME280;50436;50.618;7.932;2024-02-16T06:06:28;96177.34;;;7.59;100.00
64141;BME280;50436;50.618;7.932;2024-02-16T06:09:13;96176.91;;;7.50;100.00
64141;BME280;50436;50.618;7.932;2024-02-16T06:12:04;96175.19;;;7.44;100.00
64141;BME280;50436;50.618;7.932;2024-02-16T06:14:50;96180.06;;;7.47;100.00
64141;BME280;50436;50.618;7.932;2024-02-16T06:17:36;96172.06;;;7.47;100.00
64141;BME280;50436;50.618;7.932;2024-02-16T06:20:22;96160.25;;;7.43;100.00
64141;BME280;50436;50.618;7.932;2024-02-16T06:23:08;96165.09;;;7.46;100.00
64141;BME280;50436;50.618;7.932;2024-02-16T06:25:56;96163.59;;;7.50;100.00
64141;BME280;50436;50.618;7.932;2024-02-16T06:28:42;96172.72;;;7.54;100.00
64141;BME280;50436;50.618;7.932;2024-02-16T06:31:28;96177.22;;;7.54;100.00
64141;BME280;50436;50.618;7.932;2024-02-16T06:34:15;96181.75;;;7.53;100.00
64141;BME280;50436;50.618;7.932;2024-02-16T06:37:00;96192.41;;;7.53;100.00
64141;BME280;50436;50.618;7.932;2024-02-16T06:39:48;96202.59;;;7.57;100.00
64141;BME280;50436;50.618;7.932;2024-02-16T06:42:34;96198.53;;;7.66;100.00
64141;BME280;50436;50.618;7.932;2024-02-16T06:45:20;96208.00;;;7.73;100.00
64141;BME280;50436;50.618;7.932;2024-02-16T06:48:06;96215.59;;;7.81;100.00
64141;BME280;50436;50.618;7.932;2024-02-16T06:50:52;96218.84;;;7.83;100.00
64141;BME280;50436;50.618;7.932;2024-02-16T06:53:39;96223.22;;;7.90;100.00
64141;BME280;50436;50.618;7.932;2024-02-16T06:56:27;96221.72;;;7.94;100.00
64141;BME280;50436;50.618;7.932;2024-02-16T06:59:13;96231.66;;;7.98;100.00
64141;BME280;50436;50.618;7.932;2024-02-16T07:02:02;96236.41;;;7.96;100.00
64141;BME280;50436;50.618;7.932;2024-02-16T07:04:48;96229.34;;;8.02;100.00
64141;BME280;50436;50.618;7.932;2024-02-16T07:07:34;96237.41;;;8.07;100.00
64141;BME280;50436;50.618;7.932;2024-02-16T07:10:21;96250.50;;;8.08;100.00
64141;BME280;50436;50.618;7.932;2024-02-16T07:13:07;96248.31;;;8.05;100.00
64141;BME280;50436;50.618;7.932;2024-02-16T07:15:53;96257.34;;;8.04;100.00
64141;BME280;50436;50.618;7.932;2024-02-16T07:18:39;96262.69;;;8.04;100.00
64141;BME280;50436;50.618;7.932;2024-02-16T07:21:25;96271.13;;;8.01;100.00
64141;BME280;50436;50.618;7.932;2024-02-16T07:24:11;96256.31;;;8.05;100.00
64141;BME280;50436;50.618;7.932;2024-02-16T07:26:59;96261.25;;;8.14;100.00
64141;BME280;50436;50.618;7.932;2024-02-16T07:29:45;96272.03;;;8.19;100.00
64141;BME280;50436;50.618;7.932;2024-02-16T07:32:31;96275.25;;;8.21;100.00
64141;BME280;50436;50.618;7.932;2024-02-16T07:35:17;96278.25;;;8.24;100.00
64141;BME280;50436;50.618;7.932;2024-02-16T07:38:03;96274.88;;;8.29;100.00
64141;BME280;50436;50.618;7.932;2024-02-16T07:40:49;96271.28;;;8.35;100.00
64141;BME280;50436;50.618;7.932;2024-02-16T07:43:36;96291.56;;;8.36;100.00
64141;BME280;50436;50.618;7.932;2024-02-16T07:46:22;96292.94;;;8.38;100.00
64141;BME280;50436;50.618;7.932;2024-02-16T07:49:08;96293.84;;;8.44;100.00
64141;BME280;50436;50.618;7.932;2024-02-16T07:51:58;96308.97;;;8.55;100.00
64141;BME280;50436;50.618;7.932;2024-02-16T07:54:46;96305.84;;;8.58;100.00
64141;BME280;50436;50.618;7.932;2024-02-16T07:57:32;96307.31;;;8.66;100.00
64141;BME280;50436;50.618;7.932;2024-02-16T08:00:19;96289.72;;;8.65;100.00
64141;BME280;50436;50.618;7.932;2024-02-16T08:03:05;96306.38;;;8.72;100.00
64141;BME280;50436;50.618;7.932;2024-02-16T08:05:51;96298.38;;;8.72;100.00
64141;BME280;50436;50.618;7.932;2024-02-16T08:08:36;96298.94;;;8.74;100.00
64141;BME280;50436;50.618;7.932;2024-02-16T08:11:23;96306.13;;;8.74;100.00
64141;BME280;50436;50.618;7.932;2024-02-16T08:14:11;96306.38;;;8.72;100.00
64141;BME280;50436;50.618;7.932;2024-02-16T08:16:57;96302.16;;;8.76;100.00
64141;BME280;50436;50.618;7.932;2024-02-16T08:19:43;96304.94;;;8.81;100.00
64141;BME280;50436;50.618;7.932;2024-02-16T08:22:28;96301.53;;;8.86;100.00
64141;BME280;50436;50.618;7.932;2024-02-16T08:25:17;96302.19;;;8.93;100.00
64141;BME280;50436;50.618;7.932;2024-02-16T08:28:06;96301.06;;;8.89;100.00
64141;BME280;50436;50.618;7.932;2024-02-16T08:30:52;96311.78;;;8.94;100.00
64141;BME280;50436;50.618;7.932;2024-02-16T08:33:38;96299.59;;;8.98;100.00
64141;BME280;50436;50.618;7.932;2024-02-16T08:36:24;96305.25;;;9.02;100.00
64141;BME280;50436;50.618;7.932;2024-02-16T08:39:16;96315.22;;;9.06;100.00
64141;BME280;50436;50.618;7.932;2024-02-16T08:42:02;96312.69;;;9.16;100.00
64141;BME280;50436;50.618;7.932;2024-02-16T08:44:49;96309.56;;;9.19;100.00
64141;BME280;50436;50.618;7.932;2024-02-16T08:47:35;96324.69;;;9.31;100.00
64141;BME280;50436;50.618;7.932;2024-02-16T08:50:23;96321.59;;;9.39;100.00
64141;BME280;50436;50.618;7.932;2024-02-16T08:53:10;96313.84;;;9.37;100.00
64141;BME280;50436;50.618;7.932;2024-02-16T08:55:55;96318.91;;;9.56;100.00
64141;BME280;50436;50.618;7.932;2024-02-16T08:58:42;96324.16;;;9.67;100.00
64141;BME280;50436;50.618;7.932;2024-02-16T09:04:17;96324.63;;;9.81;100.00
64141;BME280;50436;50.618;7.932;2024-02-16T09:07:03;96329.16;;;9.81;100.00
64141;BME280;50436;50.618;7.932;2024-02-16T09:09:49;96332.00;;;9.74;100.00
64141;BME280;50436;50.618;7.932;2024-02-16T09:12:37;96328.13;;;9.65;100.00
64141;BME280;50436;50.618;7.932;2024-02-16T09:15:25;96332.34;;;9.61;100.00
64141;BME280;50436;50.618;7.932;2024-02-16T09:18:11;96329.16;;;9.64;100.00
64141;BME280;50436;50.618;7.932;2024-02-16T09:20:57;96317.63;;;9.58;100.00
64141;BME280;50436;50.618;7.932;2024-02-16T09:23:43;96330.66;;;9.55;100.00
64141;BME280;50436;50.618;7.932;2024-02-16T09:26:29;96332.44;;;9.49;100.00
64141;BME280;50436;50.618;7.932;2024-02-16T09:29:19;96339.47;;;9.55;100.00
64141;BME280;50436;50.618;7.932;2024-02-16T09:32:05;96348.94;;;9.63;100.00
64141;BME280;50436;50.618;7.932;2024-02-16T09:34:57;96369.06;;;9.87;100.00
64141;BME280;50436;50.618;7.932;2024-02-16T09:37:43;96361.28;;;9.86;100.00
64141;BME280;50436;50.618;7.932;2024-02-16T09:40:29;96374.56;;;9.97;100.00
64141;BME280;50436;50.618;7.932;2024-02-16T09:43:25;96380.66;;;10.15;100.00
64141;BME280;50436;50.618;7.932;2024-02-16T09:46:14;96378.81;;;10.15;100.00
64141;BME280;50436;50.618;7.932;2024-02-16T09:49:01;96374.13;;;10.22;100.00
64141;BME280;50436;50.618;7.932;2024-02-16T09:51:48;96375.56;;;10.30;100.00
64141;BME280;50436;50.618;7.932;2024-02-16T09:54:34;96371.34;;;10.17;100.00
64141;BME280;50436;50.618;7.932;2024-02-16T09:57:20;96376.22;;;10.20;100.00
64141;BME280;50436;50.618;7.932;2024-02-16T10:00:07;96374.31;;;10.38;100.00
64141;BME280;50436;50.618;7.932;2024-02-16T10:03:00;96382.34;;;10.38;100.00
64141;BME280;50436;50.618;7.932;2024-02-16T10:05:46;96384.88;;;10.49;100.00
64141;BME280;50436;50.618;7.932;2024-02-16T10:08:33;96382.34;;;10.59;100.00
64141;BME280;50436;50.618;7.932;2024-02-16T10:11:26;96383.75;;;10.67;100.00
64141;BME280;50436;50.618;7.932;2024-02-16T10:14:14;96377.72;;;10.77;100.00
64141;BME280;50436;50.618;7.932;2024-02-16T10:17:02;96365.22;;;10.87;100.00
64141;BME280;50436;50.618;7.932;2024-02-16T10:19:59;96372.06;;;11.00;100.00
64141;BME280;50436;50.618;7.932;2024-02-16T10:22:44;96384.22;;;11.40;100.00
64141;BME280;50436;50.618;7.932;2024-02-16T10:25:30;96377.16;;;12.45;100.00
64141;BME280;50436;50.618;7.932;2024-02-16T10:28:18;96378.00;;;12.61;100.00
64141;BME280;50436;50.618;7.932;2024-02-16T10:31:07;96373.63;;;13.28;100.00
64141;BME280;50436;50.618;7.932;2024-02-16T10:33:57;96379.53;;;13.86;100.00
64141;BME280;50436;50.618;7.932;2024-02-16T10:36:43;96389.00;;;14.79;100.00
64141;BME280;50436;50.618;7.932;2024-02-16T10:39:29;96385.97;;;14.05;100.00
64141;BME280;50436;50.618;7.932;2024-02-16T10:42:19;96392.44;;;13.89;100.00
64141;BME280;50436;50.618;7.932;2024-02-16T10:45:06;96404.28;;;13.93;100.00
64141;BME280;50436;50.618;7.932;2024-02-16T10:47:52;96408.81;;;14.13;100.00
64141;BME280;50436;50.618;7.932;2024-02-16T10:50:38;96391.59;;;14.24;100.00
64141;BME280;50436;50.618;7.932;2024-02-16T10:53:26;96394.22;;;14.49;100.00
64141;BME280;50436;50.618;7.932;2024-02-16T10:56:14;96397.50;;;14.26;100.00
64141;BME280;50436;50.618;7.932;2024-02-16T10:59:04;96396.47;;;13.81;100.00
64141;BME280;50436;50.618;7.932;2024-02-16T11:01:59;96389.69;;;14.19;100.00
64141;BME280;50436;50.618;7.932;2024-02-16T11:04:46;96401.06;;;13.50;100.00
64141;BME280;50436;50.618;7.932;2024-02-16T11:07:34;96409.91;;;13.25;100.00
64141;BME280;50436;50.618;7.932;2024-02-16T11:10:20;96414.50;;;13.60;100.00
64141;BME280;50436;50.618;7.932;2024-02-16T11:13:06;96409.66;;;13.52;100.00
64141;BME280;50436;50.618;7.932;2024-02-16T11:16:01;96411.25;;;13.53;100.00
64141;BME280;50436;50.618;7.932;2024-02-16T11:18:48;96420.91;;;13.29;100.00
64141;BME280;50436;50.618;7.932;2024-02-16T11:21:34;96413.53;;;12.89;100.00
64141;BME280;50436;50.618;7.932;2024-02-16T11:24:29;96415.31;;;13.86;100.00
64141;BME280;50436;50.618;7.932;2024-02-16T11:27:16;96411.41;;;14.64;100.00
64141;BME280;50436;50.618;7.932;2024-02-16T11:30:05;96403.94;;;15.49;100.00
64141;BME280;50436;50.618;7.932;2024-02-16T11:32:51;96405.78;;;15.54;100.00
64141;BME280;50436;50.618;7.932;2024-02-16T11:35:37;96426.25;;;14.51;100.00
64141;BME280;50436;50.618;7.932;2024-02-16T11:38:24;96424.72;;;13.63;100.00
64141;BME280;50436;50.618;7.932;2024-02-16T11:41:10;96435.94;;;13.20;100.00
64141;BME280;50436;50.618;7.932;2024-02-16T11:44:01;96427.94;;;13.60;100.00
64141;BME280;50436;50.618;7.932;2024-02-16T11:46:46;96437.09;;;13.80;100.00
64141;BME280;50436;50.618;7.932;2024-02-16T11:49:32;96431.97;;;13.53;100.00
64141;BME280;50436;50.618;7.932;2024-02-16T11:52:19;96436.53;;;13.68;100.00
64141;BME280;50436;50.618;7.932;2024-02-16T11:55:07;96436.25;;;12.66;100.00
64141;BME280;50436;50.618;7.932;2024-02-16T11:57:54;96426.19;;;13.03;100.00
64141;BME280;50436;50.618;7.932;2024-02-16T12:00:42;96424.81;;;12.91;100.00
64141;BME280;50436;50.618;7.932;2024-02-16T12:03:28;96421.81;;;12.72;100.00
64141;BME280;50436;50.618;7.932;2024-02-16T12:06:20;96415.31;;;12.63;100.00
64141;BME280;50436;50.618;7.932;2024-02-16T12:09:21;96420.72;;;12.73;100.00
64141;BME280;50436;50.618;7.932;2024-02-16T12:12:13;96415.13;;;12.22;100.00
64141;BME280;50436;50.618;7.932;2024-02-16T12:15:00;96414.94;;;11.91;100.00
64141;BME280;50436;50.618;7.932;2024-02-16T12:17:46;96412.16;;;11.81;100.00
64141;BME280;50436;50.618;7.932;2024-02-16T12:20:34;96409.06;;;11.35;100.00
64141;BME280;50436;50.618;7.932;2024-02-16T12:23:20;96398.66;;;11.39;100.00
64141;BME280;50436;50.618;7.932;2024-02-16T12:26:08;96401.19;;;12.25;100.00
64141;BME280;50436;50.618;7.932;2024-02-16T12:28:54;96406.78;;;12.81;100.00
64141;BME280;50436;50.618;7.932;2024-02-16T12:31:41;96410.47;;;13.68;100.00
64141;BME280;50436;50.618;7.932;2024-02-16T12:34:27;96405.34;;;13.51;100.00
64141;BME280;50436;50.618;7.932;2024-02-16T12:37:13;96402.22;;;12.81;100.00
64141;BME280;50436;50.618;7.932;2024-02-16T12:39:59;96402.53;;;12.22;100.00
64141;BME280;50436;50.618;7.932;2024-02-16T12:42:45;96397.97;;;12.28;100.00
64141;BME280;50436;50.618;7.932;2024-02-16T12:45:33;96399.06;;;12.32;100.00
64141;BME280;50436;50.618;7.932;2024-02-16T12:48:19;96402.66;;;12.48;100.00
64141;BME280;50436;50.618;7.932;2024-02-16T12:51:09;96409.47;;;12.18;100.00
64141;BME280;50436;50.618;7.932;2024-02-16T12:53:56;96414.38;;;12.32;100.00
64141;BME280;50436;50.618;7.932;2024-02-16T12:56:46;96429.09;;;12.24;100.00
64141;BME280;50436;50.618;7.932;2024-02-16T12:59:33;96421.13;;;11.97;100.00
64141;BME280;50436;50.618;7.932;2024-02-16T13:02:18;96428.63;;;11.63;100.00
64141;BME280;50436;50.618;7.932;2024-02-16T13:05:05;96424.41;;;11.72;100.00
64141;BME280;50436;50.618;7.932;2024-02-16T13:07:58;96438.78;;;11.34;100.00
64141;BME280;50436;50.618;7.932;2024-02-16T13:10:44;96438.34;;;11.15;100.00
64141;BME280;50436;50.618;7.932;2024-02-16T13:13:30;96437.84;;;11.18;100.00
64141;BME280;50436;50.618;7.932;2024-02-16T13:16:18;96447.75;;;11.18;100.00
64141;BME280;50436;50.618;7.932;2024-02-16T13:19:06;96451.25;;;10.96;100.00
64141;BME280;50436;50.618;7.932;2024-02-16T13:21:52;96455.81;;;10.96;100.00
64141;BME280;50436;50.618;7.932;2024-02-16T13:24:57;96450.00;;;11.04;100.00
64141;BME280;50436;50.618;7.932;2024-02-16T13:28:20;96463.72;;;11.07;100.00
64141;BME280;50436;50.618;7.932;2024-02-16T13:31:43;96450.69;;;10.94;100.00
64141;BME280;50436;50.618;7.932;2024-02-16T13:34:29;96463.84;;;10.96;100.00
64141;BME280;50436;50.618;7.932;2024-02-16T13:37:15;96468.09;;;10.92;100.00
64141;BME280;50436;50.618;7.932;2024-02-16T13:40:01;96466.59;;;10.79;100.00
64141;BME280;50436;50.618;7.932;2024-02-16T13:42:52;96472.81;;;10.84;100.00
64141;BME280;50436;50.618;7.932;2024-02-16T13:45:48;96472.75;;;10.79;100.00
64141;BME280;50436;50.618;7.932;2024-02-16T13:48:36;96476.47;;;11.00;100.00
64141;BME280;50436;50.618;7.932;2024-02-16T13:51:23;96486.38;;;11.00;100.00
64141;BME280;50436;50.618;7.932;2024-02-16T13:54:10;96485.22;;;10.91;100.00
64141;BME280;50436;50.618;7.932;2024-02-16T13:56:56;96481.59;;;10.80;100.00
64141;BME280;50436;50.618;7.932;2024-02-16T13:59:42;96489.81;;;10.95;100.00
64141;BME280;50436;50.618;7.932;2024-02-16T14:02:29;96493.28;;;10.74;100.00
64141;BME280;50436;50.618;7.932;2024-02-16T14:05:15;96495.34;;;10.67;100.00
64141;BME280;50436;50.618;7.932;2024-02-16T14:08:02;96495.66;;;10.70;100.00
64141;BME280;50436;50.618;7.932;2024-02-16T14:10:50;96503.97;;;10.74;100.00
64141;BME280;50436;50.618;7.932;2024-02-16T14:13:38;96503.31;;;10.83;100.00
64141;BME280;50436;50.618;7.932;2024-02-16T14:16:26;96496.78;;;10.74;100.00
64141;BME280;50436;50.618;7.932;2024-02-16T14:19:12;96502.34;;;10.90;100.00
64141;BME280;50436;50.618;7.932;2024-02-16T14:21:58;96507.63;;;11.06;100.00
64141;BME280;50436;50.618;7.932;2024-02-16T14:24:44;96512.28;;;10.94;100.00
64141;BME280;50436;50.618;7.932;2024-02-16T14:27:36;96519.50;;;10.94;100.00
64141;BME280;50436;50.618;7.932;2024-02-16T14:30:22;96524.69;;;11.00;100.00
64141;BME280;50436;50.618;7.932;2024-02-16T14:33:08;96527.78;;;10.92;100.00
64141;BME280;50436;50.618;7.932;2024-02-16T14:35:54;96528.09;;;10.96;100.00
64141;BME280;50436;50.618;7.932;2024-02-16T14:38:40;96532.34;;;10.92;100.00
64141;BME280;50436;50.618;7.932;2024-02-16T14:41:27;96529.13;;;10.73;100.00
64141;BME280;50436;50.618;7.932;2024-02-16T14:44:18;96533.38;;;10.69;100.00